sensor_id;sensor_type;location;lat;lon;timestamp;temperature;humidity
484;DHT22;228;48.922;12.198;2023-09-19T04:02:44;18.30;98.00
484;DHT22;228;48.922;12.198;2023-09-19T04:05:11;18.30;97.60
484;DHT22;228;48.922;12.198;2023-09-19T04:07:38;18.20;97.50
484;DHT22;228;48.922;12.198;2023-09-19T04:10:04;18.20;97.90
484;DHT22;228;48.922;12.198;2023-09-19T04:12:31;18.30;97.60
484;DHT22;228;48.922;12.198;2023-09-19T04:14:58;18.40;97.00
484;DHT22;228;48.922;12.198;2023-09-19T04:17:24;18.30;97.30
484;DHT22;228;48.922;12.198;2023-09-19T04:19:50;18.30;97.10
484;DHT22;228;48.922;12.198;2023-09-19T04:22:16;18.10;96.90
484;DHT22;228;48.922;12.198;2023-09-19T04:24:42;17.90;97.80
484;DHT22;228;48.922;12.198;2023-09-19T04:27:08;17.80;98.10
484;DHT22;228;48.922;12.198;2023-09-19T04:29:35;17.90;97.90
484;DHT22;228;48.922;12.198;2023-09-19T04:32:01;17.90;97.60
484;DHT22;228;48.922;12.198;2023-09-19T04:34:30;17.90;97.50
484;DHT22;228;48.922;12.198;2023-09-19T04:36:56;17.90;97.40
484;DHT22;228;48.922;12.198;2023-09-19T04:39:24;18.10;97.00
484;DHT22;228;48.922;12.198;2023-09-19T04:41:51;18.10;97.00
484;DHT22;228;48.922;12.198;2023-09-19T04:44:20;18.00;96.70
484;DHT22;228;48.922;12.198;2023-09-19T04:46:46;18.10;96.40
484;DHT22;228;48.922;12.198;2023-09-19T04:49:13;17.80;96.80
484;DHT22;228;48.922;12.198;2023-09-19T04:51:39;17.90;97.10
484;DHT22;228;48.922;12.198;2023-09-19T04:54:06;17.90;96.90
484;DHT22;228;48.922;12.198;2023-09-19T04:56:32;18.00;96.70
484;DHT22;228;48.922;12.198;2023-09-19T04:58:59;18.00;96.60
484;DHT22;228;48.922;12.198;2023-09-19T05:01:26;18.10;96.60
484;DHT22;228;48.922;12.198;2023-09-19T05:03:52;18.00;96.70
484;DHT22;228;48.922;12.198;2023-09-19T05:06:22;17.90;96.80
484;DHT22;228;48.922;12.198;2023-09-19T05:08:49;18.10;96.70
484;DHT22;228;48.922;12.198;2023-09-19T05:11:19;18.10;96.70
484;DHT22;228;48.922;12.198;2023-09-19T05:13:45;18.10;96.50
484;DHT22;228;48.922;12.198;2023-09-19T05:16:11;17.90;96.70
484;DHT22;228;48.922;12.198;2023-09-19T05:18:37;18.00;96.90
484;DHT22;228;48.922;12.198;2023-09-19T05:21:03;18.10;96.90
484;DHT22;228;48.922;12.198;2023-09-19T05:23:30;17.90;96.90
484;DHT22;228;48.922;12.198;2023-09-19T05:25:56;18.00;96.70
484;DHT22;228;48.922;12.198;2023-09-19T05:28:26;18.20;96.30
484;DHT22;228;48.922;12.198;2023-09-19T05:30:53;18.20;96.30
484;DHT22;228;48.922;12.198;2023-09-19T05:33:19;18.20;96.10
484;DHT22;228;48.922;12.198;2023-09-19T05:35:47;18.20;96.00
484;DHT22;228;48.922;12.198;2023-09-19T05:38:13;18.30;96.00
484;DHT22;228;48.922;12.198;2023-09-19T05:40:41;18.30;95.90
484;DHT22;228;48.922;12.198;2023-09-19T05:43:08;18.20;95.90
484;DHT22;228;48.922;12.198;2023-09-19T05:45:35;18.00;96.30
484;DHT22;228;48.922;12.198;2023-09-19T05:48:13;17.90;96.50
484;DHT22;228;48.922;12.198;2023-09-19T05:50:39;18.10;96.30
484;DHT22;228;48.922;12.198;2023-09-19T05:53:05;18.10;96.40
484;DHT22;228;48.922;12.198;2023-09-19T05:55:32;18.10;96.20
484;DHT22;228;48.922;12.198;2023-09-19T05:57:58;18.00;96.10
484;DHT22;228;48.922;12.198;2023-09-19T06:00:25;18.30;96.10
484;DHT22;228;48.922;12.198;2023-09-19T06:02:54;18.40;95.60
484;DHT22;228;48.922;12.198;2023-09-19T06:05:21;18.10;96.00
484;DHT22;228;48.922;12.198;2023-09-19T06:07:47;18.00;96.50
484;DHT22;228;48.922;12.198;2023-09-19T06:10:13;17.90;96.90
484;DHT22;228;48.922;12.198;2023-09-19T06:12:44;18.10;96.70
484;DHT22;228;48.922;12.198;2023-09-19T06:15:12;18.10;96.80
484;DHT22;228;48.922;12.198;2023-09-19T06:17:48;18.10;96.70
484;DHT22;228;48.922;12.198;2023-09-19T06:20:15;18.30;96.80
484;DHT22;228;48.922;12.198;2023-09-19T06:22:43;18.10;97.00
484;DHT22;228;48.922;12.198;2023-09-19T06:25:10;18.30;96.70
484;DHT22;228;48.922;12.198;2023-09-19T06:27:40;18.40;96.70
484;DHT22;228;48.922;12.198;2023-09-19T06:30:10;18.50;96.50
484;DHT22;228;48.922;12.198;2023-09-19T06:32:40;18.50;96.50
484;DHT22;228;48.922;12.198;2023-09-19T06:35:13;18.90;96.00
484;DHT22;228;48.922;12.198;2023-09-19T06:37:49;18.90;95.70
484;DHT22;228;48.922;12.198;2023-09-19T06:40:30;19.00;95.50
484;DHT22;228;48.922;12.198;2023-09-19T06:42:59;19.00;95.80
484;DHT22;228;48.922;12.198;2023-09-19T06:46:19;18.80;95.80
484;DHT22;228;48.922;12.198;2023-09-19T06:48:59;18.70;95.30
484;DHT22;228;48.922;12.198;2023-09-19T06:51:52;18.70;96.20
484;DHT22;228;48.922;12.198;2023-09-19T06:55:13;19.00;96.00
484;DHT22;228;48.922;12.198;2023-09-19T06:58:03;19.30;95.20
484;DHT22;228;48.922;12.198;2023-09-19T07:01:29;19.60;94.40
484;DHT22;228;48.922;12.198;2023-09-19T07:04:17;19.40;94.00
484;DHT22;228;48.922;12.198;2023-09-19T07:06:54;19.70;93.90
484;DHT22;228;48.922;12.198;2023-09-19T07:09:20;19.90;93.50
484;DHT22;228;48.922;12.198;2023-09-19T07:11:49;20.00;92.30
484;DHT22;228;48.922;12.198;2023-09-19T07:14:16;20.10;92.60
484;DHT22;228;48.922;12.198;2023-09-19T07:16:42;19.80;92.40
484;DHT22;228;48.922;12.198;2023-09-19T07:19:10;20.00;92.40
484;DHT22;228;48.922;12.198;2023-09-19T07:21:46;20.10;91.70
484;DHT22;228;48.922;12.198;2023-09-19T07:24:31;19.80;92.20
484;DHT22;228;48.922;12.198;2023-09-19T07:27:12;20.20;93.00
484;DHT22;228;48.922;12.198;2023-09-19T07:30:08;20.10;92.40
484;DHT22;228;48.922;12.198;2023-09-19T07:33:02;20.50;91.60
484;DHT22;228;48.922;12.198;2023-09-19T07:35:53;20.30;91.30
484;DHT22;228;48.922;12.198;2023-09-19T07:38:44;20.40;91.20
484;DHT22;228;48.922;12.198;2023-09-19T07:41:11;20.70;91.30
484;DHT22;228;48.922;12.198;2023-09-19T07:43:37;20.90;90.70
484;DHT22;228;48.922;12.198;2023-09-19T07:46:06;21.00;90.20
484;DHT22;228;48.922;12.198;2023-09-19T07:48:33;20.30;89.50
484;DHT22;228;48.922;12.198;2023-09-19T07:51:08;20.50;90.70
484;DHT22;228;48.922;12.198;2023-09-19T07:53:39;20.70;90.30
484;DHT22;228;48.922;12.198;2023-09-19T07:56:06;20.60;90.20
484;DHT22;228;48.922;12.198;2023-09-19T07:58:38;20.20;90.00
484;DHT22;228;48.922;12.198;2023-09-19T08:01:07;20.30;90.40
484;DHT22;228;48.922;12.198;2023-09-19T08:03:37;20.50;90.70
484;DHT22;228;48.922;12.198;2023-09-19T08:06:09;20.70;90.40
484;DHT22;228;48.922;12.198;2023-09-19T08:08:36;20.70;87.50
484;DHT22;228;48.922;12.198;2023-09-19T08:11:06;20.80;87.60
484;DHT22;228;48.922;12.198;2023-09-19T08:13:39;20.70;87.70
484;DHT22;228;48.922;12.198;2023-09-19T08:16:19;20.30;89.30
484;DHT22;228;48.922;12.198;2023-09-19T08:18:48;20.60;89.30
484;DHT22;228;48.922;12.198;2023-09-19T08:21:18;21.60;85.50
484;DHT22;228;48.922;12.198;2023-09-19T08:23:50;21.70;85.10
484;DHT22;228;48.922;12.198;2023-09-19T08:26:17;22.20;83.60
484;DHT22;228;48.922;12.198;2023-09-19T08:28:46;22.20;81.20
484;DHT22;228;48.922;12.198;2023-09-19T08:31:12;22.30;81.50
484;DHT22;228;48.922;12.198;2023-09-19T08:33:39;22.30;80.00
484;DHT22;228;48.922;12.198;2023-09-19T08:36:07;22.20;79.30
484;DHT22;228;48.922;12.198;2023-09-19T08:38:37;22.20;79.50
484;DHT22;228;48.922;12.198;2023-09-19T08:41:07;22.00;79.90
484;DHT22;228;48.922;12.198;2023-09-19T08:43:35;21.50;80.60
484;DHT22;228;48.922;12.198;2023-09-19T08:46:13;21.50;81.00
484;DHT22;228;48.922;12.198;2023-09-19T08:48:57;21.80;80.70
484;DHT22;228;48.922;12.198;2023-09-19T08:51:41;21.90;79.80
484;DHT22;228;48.922;12.198;2023-09-19T08:54:18;22.20;79.00
484;DHT22;228;48.922;12.198;2023-09-19T08:56:49;21.90;78.20
484;DHT22;228;48.922;12.198;2023-09-19T08:59:16;21.70;80.30
484;DHT22;228;48.922;12.198;2023-09-19T09:01:43;21.60;79.60
484;DHT22;228;48.922;12.198;2023-09-19T09:04:09;21.60;80.90
484;DHT22;228;48.922;12.198;2023-09-19T09:06:39;21.70;80.20
484;DHT22;228;48.922;12.198;2023-09-19T09:09:07;21.90;79.30
484;DHT22;228;48.922;12.198;2023-09-19T09:11:35;22.00;78.80
484;DHT22;228;48.922;12.198;2023-09-19T09:14:09;22.10;78.90
484;DHT22;228;48.922;12.198;2023-09-19T09:16:35;22.10;78.50
484;DHT22;228;48.922;12.198;2023-09-19T09:19:01;22.00;78.20
484;DHT22;228;48.922;12.198;2023-09-19T09:21:27;22.00;78.60
484;DHT22;228;48.922;12.198;2023-09-19T09:23:54;21.90;77.90
484;DHT22;228;48.922;12.198;2023-09-19T09:26:52;21.80;79.00
484;DHT22;228;48.922;12.198;2023-09-19T09:29:42;21.90;78.60
484;DHT22;228;48.922;12.198;2023-09-19T09:32:29;21.90;78.70
484;DHT22;228;48.922;12.198;2023-09-19T09:35:00;22.10;78.90
484;DHT22;228;48.922;12.198;2023-09-19T09:37:28;22.40;77.40
484;DHT22;228;48.922;12.198;2023-09-19T09:40:00;22.70;76.60
484;DHT22;228;48.922;12.198;2023-09-19T09:42:45;22.50;76.40
484;DHT22;228;48.922;12.198;2023-09-19T09:45:20;22.30;77.30
484;DHT22;228;48.922;12.198;2023-09-19T09:47:59;22.00;78.80
484;DHT22;228;48.922;12.198;2023-09-19T09:50:36;20.60;82.40
484;DHT22;228;48.922;12.198;2023-09-19T09:53:30;19.20;82.20
484;DHT22;228;48.922;12.198;2023-09-19T09:56:09;18.30;88.00
484;DHT22;228;48.922;12.198;2023-09-19T09:58:57;18.00;91.30
484;DHT22;228;48.922;12.198;2023-09-19T10:01:25;17.50;94.60
484;DHT22;228;48.922;12.198;2023-09-19T10:03:57;16.90;96.90
484;DHT22;228;48.922;12.198;2023-09-19T10:06:24;16.60;98.30
484;DHT22;228;48.922;12.198;2023-09-19T10:09:09;16.80;99.00
484;DHT22;228;48.922;12.198;2023-09-19T10:11:49;17.00;98.90
484;DHT22;228;48.922;12.198;2023-09-19T10:14:26;17.60;98.20
484;DHT22;228;48.922;12.198;2023-09-19T10:17:05;17.80;97.70
484;DHT22;228;48.922;12.198;2023-09-19T10:22:05;17.60;97.90
484;DHT22;228;48.922;12.198;2023-09-19T10:24:37;18.20;96.80
484;DHT22;228;48.922;12.198;2023-09-19T10:27:06;18.20;95.90
484;DHT22;228;48.922;12.198;2023-09-19T10:29:39;18.50;95.70
484;DHT22;228;48.922;12.198;2023-09-19T10:32:14;18.70;94.60
484;DHT22;228;48.922;12.198;2023-09-19T10:34:49;19.00;94.70
484;DHT22;228;48.922;12.198;2023-09-19T10:37:20;19.10;93.70
484;DHT22;228;48.922;12.198;2023-09-19T10:39:51;19.40;93.70
484;DHT22;228;48.922;12.198;2023-09-19T10:42:28;19.70;92.30
484;DHT22;228;48.922;12.198;2023-09-19T10:45:00;19.70;90.70
484;DHT22;228;48.922;12.198;2023-09-19T10:47:41;19.80;91.30
484;DHT22;228;48.922;12.198;2023-09-19T10:50:20;20.50;88.70
484;DHT22;228;48.922;12.198;2023-09-19T10:52:53;20.60;89.30
484;DHT22;228;48.922;12.198;2023-09-19T10:55:30;21.30;84.90
484;DHT22;228;48.922;12.198;2023-09-19T10:58:00;21.80;83.90
484;DHT22;228;48.922;12.198;2023-09-19T11:00:53;21.80;78.20
484;DHT22;228;48.922;12.198;2023-09-19T11:03:28;21.90;79.70
484;DHT22;228;48.922;12.198;2023-09-19T11:09:03;23.00;73.70
484;DHT22;228;48.922;12.198;2023-09-19T11:11:39;22.60;74.60
484;DHT22;228;48.922;12.198;2023-09-19T11:30:34;24.60;67.30
484;DHT22;228;48.922;12.198;2023-09-19T11:33:27;25.00;67.10
484;DHT22;228;48.922;12.198;2023-09-19T11:43:48;26.60;57.90
484;DHT22;228;48.922;12.198;2023-09-19T11:46:17;26.20;57.20
484;DHT22;228;48.922;12.198;2023-09-19T11:48:51;26.50;57.40
484;DHT22;228;48.922;12.198;2023-09-19T11:51:20;27.10;57.30
484;DHT22;228;48.922;12.198;2023-09-19T11:53:56;27.00;56.00
484;DHT22;228;48.922;12.198;2023-09-19T11:56:26;26.80;54.60
484;DHT22;228;48.922;12.198;2023-09-19T11:58:57;26.90;55.40
484;DHT22;228;48.922;12.198;2023-09-19T12:01:33;26.80;54.60
484;DHT22;228;48.922;12.198;2023-09-19T12:04:01;26.70;54.30
484;DHT22;228;48.922;12.198;2023-09-19T12:06:30;27.30;54.40
484;DHT22;228;48.922;12.198;2023-09-19T12:09:01;27.70;52.00
484;DHT22;228;48.922;12.198;2023-09-19T12:11:33;27.50;52.80
484;DHT22;228;48.922;12.198;2023-09-19T12:14:22;27.10;53.20
484;DHT22;228;48.922;12.198;2023-09-19T12:16:55;27.10;52.90
484;DHT22;228;48.922;12.198;2023-09-19T12:19:22;26.90;53.80
484;DHT22;228;48.922;12.198;2023-09-19T12:22:00;27.40;54.40
484;DHT22;228;48.922;12.198;2023-09-19T12:24:35;28.20;52.20
484;DHT22;228;48.922;12.198;2023-09-19T12:27:06;29.20;50.30
484;DHT22;228;48.922;12.198;2023-09-19T12:29:48;29.00;48.20
484;DHT22;228;48.922;12.198;2023-09-19T12:32:36;30.00;47.40
484;DHT22;228;48.922;12.198;2023-09-19T12:35:09;30.10;46.10
484;DHT22;228;48.922;12.198;2023-09-19T12:37:44;29.40;46.30
484;DHT22;228;48.922;12.198;2023-09-19T12:40:21;29.80;45.30
484;DHT22;228;48.922;12.198;2023-09-19T12:42:55;28.80;45.90
484;DHT22;228;48.922;12.198;2023-09-19T12:45:21;28.90;45.00
484;DHT22;228;48.922;12.198;2023-09-19T12:48:19;29.20;44.10
484;DHT22;228;48.922;12.198;2023-09-19T12:51:05;29.50;44.10
484;DHT22;228;48.922;12.198;2023-09-19T12:53:36;28.90;43.30
484;DHT22;228;48.922;12.198;2023-09-19T12:56:11;28.70;44.80
484;DHT22;228;48.922;12.198;2023-09-19T12:58:55;29.00;44.50
484;DHT22;228;48.922;12.198;2023-09-19T13:01:26;29.50;42.60
484;DHT22;228;48.922;12.198;2023-09-19T13:04:16;29.50;42.10
484;DHT22;228;48.922;12.198;2023-09-19T13:06:47;29.10;42.30
484;DHT22;228;48.922;12.198;2023-09-19T13:09:19;28.70;44.30
484;DHT22;228;48.922;12.198;2023-09-19T13:11:46;28.40;45.80
484;DHT22;228;48.922;12.198;2023-09-19T13:14:26;29.50;44.80
484;DHT22;228;48.922;12.198;2023-09-19T13:19:44;30.40;40.70
484;DHT22;228;48.922;12.198;2023-09-19T13:25:18;27.90;45.20
484;DHT22;228;48.922;12.198;2023-09-19T13:27:46;27.30;46.90
484;DHT22;228;48.922;12.198;2023-09-19T13:30:14;27.80;46.60
484;DHT22;228;48.922;12.198;2023-09-19T13:32:41;28.40;44.90
484;DHT22;228;48.922;12.198;2023-09-19T13:35:08;28.60;44.50
484;DHT22;228;48.922;12.198;2023-09-19T13:37:36;29.00;44.40
484;DHT22;228;48.922;12.198;2023-09-19T13:40:05;29.50;42.60
484;DHT22;228;48.922;12.198;2023-09-19T13:42:31;29.80;41.80
484;DHT22;228;48.922;12.198;2023-09-19T13:44:57;30.10;41.00
484;DHT22;228;48.922;12.198;2023-09-19T13:47:23;30.50;40.70
484;DHT22;228;48.922;12.198;2023-09-19T13:49:52;31.90;39.20
484;DHT22;228;48.922;12.198;2023-09-19T13:52:22;32.70;38.50
484;DHT22;228;48.922;12.198;2023-09-19T13:54:50;32.90;35.10
484;DHT22;228;48.922;12.198;2023-09-19T13:57:16;32.20;35.00
484;DHT22;228;48.922;12.198;2023-09-19T13:59:42;32.20;37.30
484;DHT22;228;48.922;12.198;2023-09-19T14:02:08;32.60;37.20
484;DHT22;228;48.922;12.198;2023-09-19T14:04:34;32.90;35.20
484;DHT22;228;48.922;12.198;2023-09-19T14:07:01;31.40;35.80
484;DHT22;228;48.922;12.198;2023-09-19T14:09:27;30.80;37.40
484;DHT22;228;48.922;12.198;2023-09-19T14:11:53;29.90;39.40
484;DHT22;228;48.922;12.198;2023-09-19T14:14:19;29.10;40.80
484;DHT22;228;48.922;12.198;2023-09-19T14:16:49;28.60;41.90
484;DHT22;228;48.922;12.198;2023-09-19T14:19:15;29.10;40.70
484;DHT22;228;48.922;12.198;2023-09-19T14:21:42;29.90;38.80
484;DHT22;228;48.922;12.198;2023-09-19T14:24:08;31.00;37.90
484;DHT22;228;48.922;12.198;2023-09-19T14:26:39;31.20;37.20
484;DHT22;228;48.922;12.198;2023-09-19T14:29:05;31.00;37.20
484;DHT22;228;48.922;12.198;2023-09-19T14:31:37;30.50;38.90
484;DHT22;228;48.922;12.198;2023-09-19T14:34:03;29.40;39.40
484;DHT22;228;48.922;12.198;2023-09-19T14:36:31;27.30;43.00
484;DHT22;228;48.922;12.198;2023-09-19T14:38:57;27.20;44.10
484;DHT22;228;48.922;12.198;2023-09-19T14:41:25;27.30;43.90
484;DHT22;228;48.922;12.198;2023-09-19T14:43:53;28.60;41.30
484;DHT22;228;48.922;12.198;2023-09-19T14:46:21;29.40;40.20
484;DHT22;228;48.922;12.198;2023-09-19T14:48:47;30.60;38.80
484;DHT22;228;48.922;12.198;2023-09-19T14:51:13;31.30;36.00
484;DHT22;228;48.922;12.198;2023-09-19T14:53:40;32.00;35.40
484;DHT22;228;48.922;12.198;2023-09-19T14:56:10;31.60;35.70
484;DHT22;228;48.922;12.198;2023-09-19T14:58:37;31.10;36.60
484;DHT22;228;48.922;12.198;2023-09-19T15:01:12;30.30;37.20
484;DHT22;228;48.922;12.198;2023-09-19T15:03:40;30.20;39.40
484;DHT22;228;48.922;12.198;2023-09-19T15:06:10;30.80;37.90
484;DHT22;228;48.922;12.198;2023-09-19T15:08:46;31.80;35.90
484;DHT22;228;48.922;12.198;2023-09-19T15:11:14;32.50;35.00
484;DHT22;228;48.922;12.198;2023-09-19T15:13:43;32.80;34.20
484;DHT22;228;48.922;12.198;2023-09-19T15:16:09;33.50;33.10
484;DHT22;228;48.922;12.198;2023-09-19T15:18:37;34.00;33.20
484;DHT22;228;48.922;12.198;2023-09-19T15:21:04;34.90;31.50
484;DHT22;228;48.922;12.198;2023-09-19T15:23:31;35.50;31.30
484;DHT22;228;48.922;12.198;2023-09-19T15:26:06;36.20;30.00
484;DHT22;228;48.922;12.198;2023-09-19T15:28:34;34.10;31.40
484;DHT22;228;48.922;12.198;2023-09-19T15:31:11;33.60;31.60
484;DHT22;228;48.922;12.198;2023-09-19T15:33:37;33.80;31.70
484;DHT22;228;48.922;12.198;2023-09-19T15:36:08;33.60;30.80
484;DHT22;228;48.922;12.198;2023-09-19T15:41:33;31.50;34.50
484;DHT22;228;48.922;12.198;2023-09-19T15:44:01;31.90;34.80
484;DHT22;228;48.922;12.198;2023-09-19T15:46:28;33.10;32.60
484;DHT22;228;48.922;12.198;2023-09-19T15:48:56;33.40;32.20
484;DHT22;228;48.922;12.198;2023-09-19T15:51:23;33.70;31.90
484;DHT22;228;48.922;12.198;2023-09-19T15:53:51;34.00;31.40
484;DHT22;228;48.922;12.198;2023-09-19T15:56:18;34.00;31.50
484;DHT22;228;48.922;12.198;2023-09-19T15:58:47;33.00;32.40
484;DHT22;228;48.922;12.198;2023-09-19T16:01:14;32.00;33.40
484;DHT22;228;48.922;12.198;2023-09-19T16:03:46;32.00;34.00
484;DHT22;228;48.922;12.198;2023-09-19T16:06:17;32.30;34.10
484;DHT22;228;48.922;12.198;2023-09-19T16:08:46;32.30;34.40
484;DHT22;228;48.922;12.198;2023-09-19T16:11:13;31.70;34.70
484;DHT22;228;48.922;12.198;2023-09-19T16:13:40;31.40;35.50
484;DHT22;228;48.922;12.198;2023-09-19T16:16:11;31.70;35.70
484;DHT22;228;48.922;12.198;2023-09-19T16:18:48;32.00;34.90
484;DHT22;228;48.922;12.198;2023-09-19T16:21:15;31.30;36.10
484;DHT22;228;48.922;12.198;2023-09-19T16:23:48;31.20;36.50
484;DHT22;228;48.922;12.198;2023-09-19T16:26:16;31.80;35.70
484;DHT22;228;48.922;12.198;2023-09-19T16:28:45;32.10;35.20
484;DHT22;228;48.922;12.198;2023-09-19T16:31:12;31.90;35.70
484;DHT22;228;48.922;12.198;2023-09-19T16:33:43;31.00;36.80
484;DHT22;228;48.922;12.198;2023-09-19T16:38:47;28.90;40.60
484;DHT22;228;48.922;12.198;2023-09-19T16:41:14;28.10;42.70
484;DHT22;228;48.922;12.198;2023-09-19T16:43:40;27.10;44.40
484;DHT22;228;48.922;12.198;2023-09-19T16:46:11;26.50;46.50
484;DHT22;228;48.922;12.198;2023-09-19T16:48:39;25.80;47.20
484;DHT22;228;48.922;12.198;2023-09-19T16:54:58;25.00;49.20
484;DHT22;228;48.922;12.198;2023-09-19T16:57:50;24.60;50.30
484;DHT22;228;48.922;12.198;2023-09-19T17:00:33;24.20;50.70
484;DHT22;228;48.922;12.198;2023-09-19T17:16:00;22.60;56.70
484;DHT22;228;48.922;12.198;2023-09-19T17:18:27;22.30;57.30
484;DHT22;228;48.922;12.198;2023-09-19T17:20:54;22.10;58.20
484;DHT22;228;48.922;12.198;2023-09-19T17:23:38;21.80;58.10
484;DHT22;228;48.922;12.198;2023-09-19T17:26:15;21.50;60.40
484;DHT22;228;48.922;12.198;2023-09-19T17:28:43;21.20;62.00
484;DHT22;228;48.922;12.198;2023-09-19T17:31:17;20.80;64.10
484;DHT22;228;48.922;12.198;2023-09-19T17:33:48;20.60;66.40
484;DHT22;228;48.922;12.198;2023-09-19T17:38:52;20.10;69.60
484;DHT22;228;48.922;12.198;2023-09-19T17:41:19;20.00;70.50
484;DHT22;228;48.922;12.198;2023-09-19T17:43:54;19.80;70.10
484;DHT22;228;48.922;12.198;2023-09-19T17:46:21;19.60;71.80
484;DHT22;228;48.922;12.198;2023-09-19T17:48:53;19.40;73.30
484;DHT22;228;48.922;12.198;2023-09-19T17:51:20;19.20;74.40
484;DHT22;228;48.922;12.198;2023-09-19T17:53:47;19.00;75.60
484;DHT22;228;48.922;12.198;2023-09-19T17:56:15;19.00;76.70
484;DHT22;228;48.922;12.198;2023-09-19T17:58:47;19.10;76.50
484;DHT22;228;48.922;12.198;2023-09-19T18:01:30;19.10;76.40
484;DHT22;228;48.922;12.198;2023-09-19T18:04:01;19.00;75.70
484;DHT22;228;48.922;12.198;2023-09-19T18:06:35;18.60;76.90
484;DHT22;228;48.922;12.198;2023-09-19T18:09:09;18.60;78.20
484;DHT22;228;48.922;12.198;2023-09-19T18:11:38;18.90;75.40
484;DHT22;228;48.922;12.198;2023-09-19T18:14:04;18.90;76.40
484;DHT22;228;48.922;12.198;2023-09-19T18:16:30;18.70;79.00
484;DHT22;228;48.922;12.198;2023-09-19T18:18:57;18.60;79.30
484;DHT22;228;48.922;12.198;2023-09-19T18:21:25;18.60;78.60
484;DHT22;228;48.922;12.198;2023-09-19T18:23:57;18.70;78.40
484;DHT22;228;48.922;12.198;2023-09-19T18:26:25;18.50;79.60
484;DHT22;228;48.922;12.198;2023-09-19T18:28:51;18.40;80.10
484;DHT22;228;48.922;12.198;2023-09-19T18:31:17;18.30;80.60
484;DHT22;228;48.922;12.198;2023-09-19T18:33:43;18.20;82.00
484;DHT22;228;48.922;12.198;2023-09-19T18:36:10;18.10;82.80
484;DHT22;228;48.922;12.198;2023-09-19T18:38:40;18.10;82.60
484;DHT22;228;48.922;12.198;2023-09-19T18:41:09;17.90;83.60
484;DHT22;228;48.922;12.198;2023-09-19T18:43:37;17.80;84.30
484;DHT22;228;48.922;12.198;2023-09-19T18:46:07;17.90;83.50
484;DHT22;228;48.922;12.198;2023-09-19T18:48:43;17.90;84.00
484;DHT22;228;48.922;12.198;2023-09-19T18:51:11;17.90;84.00
484;DHT22;228;48.922;12.198;2023-09-19T18:53:50;18.00;83.50
484;DHT22;228;48.922;12.198;2023-09-19T18:56:20;18.00;83.10
484;DHT22;228;48.922;12.198;2023-09-19T18:58:52;17.90;83.90
484;DHT22;228;48.922;12.198;2023-09-19T19:01:35;17.80;83.90
484;DHT22;228;48.922;12.198;2023-09-19T19:04:09;17.70;85.10
484;DHT22;228;48.922;12.198;2023-09-19T19:06:50;17.70;84.10
484;DHT22;228;48.922;12.198;2023-09-19T19:09:19;17.50;84.60
484;DHT22;228;48.922;12.198;2023-09-19T19:11:49;17.50;84.90
484;DHT22;228;48.922;12.198;2023-09-19T19:14:16;17.60;85.70
484;DHT22;228;48.922;12.198;2023-09-19T19:16:51;17.70;84.60
484;DHT22;228;48.922;12.198;2023-09-19T19:19:19;17.80;84.20
484;DHT22;228;48.922;12.198;2023-09-19T19:21:55;17.80;84.60
484;DHT22;228;48.922;12.198;2023-09-19T19:24:21;17.70;84.40
484;DHT22;228;48.922;12.198;2023-09-19T19:26:48;17.70;84.60
484;DHT22;228;48.922;12.198;2023-09-19T19:29:16;17.60;85.00
484;DHT22;228;48.922;12.198;2023-09-19T19:31:42;17.50;86.90
484;DHT22;228;48.922;12.198;2023-09-19T19:34:08;17.50;86.30
484;DHT22;228;48.922;12.198;2023-09-19T19:36:34;17.40;86.60
484;DHT22;228;48.922;12.198;2023-09-19T19:39:00;17.60;87.40
484;DHT22;228;48.922;12.198;2023-09-19T19:41:26;17.60;87.30
484;DHT22;228;48.922;12.198;2023-09-19T19:43:52;17.40;87.80
484;DHT22;228;48.922;12.198;2023-09-19T19:46:19;17.10;90.30
484;DHT22;228;48.922;12.198;2023-09-19T19:48:49;17.00;90.70
484;DHT22;228;48.922;12.198;2023-09-19T19:51:17;17.10;90.60
484;DHT22;228;48.922;12.198;2023-09-19T19:53:43;17.20;90.50
484;DHT22;228;48.922;12.198;2023-09-19T19:56:09;17.20;90.40
484;DHT22;228;48.922;12.198;2023-09-19T19:58:35;17.00;90.80
484;DHT22;228;48.922;12.198;2023-09-19T20:01:02;17.00;91.80
484;DHT22;228;48.922;12.198;2023-09-19T20:03:33;16.70;92.20
484;DHT22;228;48.922;12.198;2023-09-19T20:06:01;16.60;92.70
484;DHT22;228;48.922;12.198;2023-09-19T20:08:28;16.80;92.20
484;DHT22;228;48.922;12.198;2023-09-19T20:11:02;16.70;92.30
484;DHT22;228;48.922;12.198;2023-09-19T20:13:29;16.70;92.70
484;DHT22;228;48.922;12.198;2023-09-19T20:15:56;16.50;93.10
484;DHT22;228;48.922;12.198;2023-09-19T20:18:24;16.40;93.40
484;DHT22;228;48.922;12.198;2023-09-19T20:20:50;16.30;93.80
484;DHT22;228;48.922;12.198;2023-09-19T20:23:20;16.40;93.40
484;DHT22;228;48.922;12.198;2023-09-19T20:25:47;16.60;92.80
484;DHT22;228;48.922;12.198;2023-09-19T20:28:14;16.70;92.20
484;DHT22;228;48.922;12.198;2023-09-19T20:30:43;16.70;92.20
484;DHT22;228;48.922;12.198;2023-09-19T20:33:10;16.40;92.70
484;DHT22;228;48.922;12.198;2023-09-19T20:35:39;16.40;93.20
484;DHT22;228;48.922;12.198;2023-09-19T20:38:06;16.30;93.70
484;DHT22;228;48.922;12.198;2023-09-19T20:40:32;16.40;93.50
484;DHT22;228;48.922;12.198;2023-09-19T20:43:04;16.40;93.60
484;DHT22;228;48.922;12.198;2023-09-19T20:45:29;16.50;92.60
484;DHT22;228;48.922;12.198;2023-09-19T20:47:56;16.60;92.50
484;DHT22;228;48.922;12.198;2023-09-19T20:50:23;16.60;92.60
484;DHT22;228;48.922;12.198;2023-09-19T20:52:49;16.30;93.50
484;DHT22;228;48.922;12.198;2023-09-19T20:55:15;15.90;94.90
484;DHT22;228;48.922;12.198;2023-09-19T20:57:41;16.00;95.70
484;DHT22;228;48.922;12.198;2023-09-19T21:00:07;16.30;94.70
484;DHT22;228;48.922;12.198;2023-09-19T21:02:38;16.40;94.50
484;DHT22;228;48.922;12.198;2023-09-19T21:05:04;16.70;93.70
484;DHT22;228;48.922;12.198;2023-09-19T21:07:30;16.80;93.30
484;DHT22;228;48.922;12.198;2023-09-19T21:09:58;16.60;93.20
484;DHT22;228;48.922;12.198;2023-09-19T21:12:26;16.80;93.00
484;DHT22;228;48.922;12.198;2023-09-19T21:14:52;16.70;92.30
